createdAt,value
2017-08-27T16:38:19.506Z,13.63
2017-08-27T16:40:47.484Z,8.47
2017-08-27T16:43:15.534Z,9.33
2017-08-27T16:45:43.563Z,8.73
2017-08-27T16:48:11.634Z,7.73
2017-08-27T16:50:39.856Z,13.27
2017-08-27T16:53:07.869Z,10.17
2017-08-27T16:55:36.043Z,12.20
2017-08-27T16:58:04.576Z,9.90
2017-08-27T17:00:32.805Z,12.67
2017-08-27T17:03:01.059Z,8.50
2017-08-27T17:05:29.343Z,14.10
2017-08-27T17:07:57.341Z,14.40
2017-08-27T17:10:25.330Z,22.43
2017-08-27T17:12:53.322Z,12.67
2017-08-27T17:15:21.326Z,11.10
2017-08-27T17:17:49.316Z,18.50
2017-08-27T17:20:17.314Z,11.47
2017-08-27T17:22:45.326Z,14.00
2017-08-27T17:25:13.312Z,13.43
2017-08-27T17:27:41.289Z,8.77
2017-08-27T17:30:09.294Z,16.20
2017-08-27T17:32:37.283Z,10.10
2017-08-27T17:35:05.519Z,10.37
2017-08-27T17:37:33.533Z,9.33
2017-08-27T17:40:01.519Z,9.60
2017-08-27T17:42:29.505Z,12.07
2017-08-27T17:44:57.506Z,9.03
2017-08-27T17:47:25.515Z,11.20
2017-08-27T17:49:53.552Z,14.20
2017-08-27T17:52:21.632Z,7.87
2017-08-27T17:54:49.622Z,9.30
2017-08-27T17:57:17.596Z,9.33
2017-08-27T17:59:45.611Z,9.90
2017-08-27T18:02:13.593Z,9.63
2017-08-27T18:04:41.583Z,11.87
2017-08-27T18:07:09.605Z,11.40
2017-08-27T18:09:37.591Z,11.97
2017-08-27T18:12:05.585Z,11.97
2017-08-27T18:14:33.841Z,12.20
2017-08-27T18:17:01.832Z,10.23
2017-08-27T18:19:30.006Z,8.53
2017-08-27T18:21:58.964Z,24.80
2017-08-27T18:24:27.148Z,21.20
2017-08-27T18:26:55.322Z,14.70
2017-08-27T18:29:23.505Z,19.23
2017-08-27T18:31:51.684Z,26.10
2017-08-27T18:34:19.682Z,15.43
2017-08-27T18:36:47.886Z,23.17
2017-08-27T18:39:16.056Z,18.20
2017-08-27T18:41:44.048Z,18.13
2017-08-27T18:44:12.241Z,20.73
2017-08-27T18:46:40.419Z,21.07
2017-08-27T18:49:08.601Z,16.70
2017-08-27T18:51:36.862Z,24.87
2017-08-27T18:54:05.375Z,27.23
2017-08-27T18:56:34.314Z,21.33
2017-08-27T18:59:03.266Z,19.47
2017-08-27T19:01:31.695Z,23.03
2017-08-27T19:03:59.700Z,12.40
2017-08-27T19:06:27.918Z,15.03
2017-08-27T19:08:56.096Z,15.20
2017-08-27T19:11:24.458Z,14.87
2017-08-27T19:13:52.655Z,12.27
2017-08-27T19:16:20.956Z,27.73
2017-08-27T19:18:48.965Z,25.37
2017-08-27T19:21:16.967Z,14.30
2017-08-27T19:23:45.166Z,13.33
2017-08-27T19:26:13.329Z,20.73
2017-08-27T19:28:41.548Z,17.30
2017-08-27T19:31:09.809Z,24.67
2017-08-27T19:33:37.988Z,14.60
2017-08-27T19:36:06.182Z,10.57
2017-08-27T19:38:34.376Z,14.30
2017-08-27T19:41:03.318Z,18.83
2017-08-27T19:43:31.908Z,11.40
2017-08-27T19:46:00.070Z,11.33
2017-08-27T19:48:28.260Z,19.93
2017-08-27T19:50:56.404Z,17.03
2017-08-27T19:53:24.584Z,11.67
2017-08-27T19:55:52.780Z,11.47
2017-08-27T19:58:21.056Z,6.93
2017-08-27T20:00:49.415Z,15.40
2017-08-27T20:03:17.404Z,19.03
2017-08-27T20:05:45.677Z,10.23
2017-08-27T20:08:13.865Z,23.20
2017-08-27T20:10:42.041Z,16.50
2017-08-27T20:13:10.513Z,12.33
2017-08-27T20:15:38.691Z,8.90
2017-08-27T20:18:06.973Z,11.00
2017-08-27T20:20:34.972Z,13.03
2017-08-27T20:23:03.150Z,15.13
2017-08-27T20:25:32.108Z,10.43
2017-08-27T20:28:00.610Z,12.77
2017-08-27T20:30:29.672Z,10.07
2017-08-27T20:32:57.858Z,16.20
2017-08-27T20:35:26.216Z,21.27
2017-08-27T20:37:54.648Z,22.93
2017-08-27T20:40:23.600Z,20.03
2017-08-27T20:42:51.888Z,17.77
2017-08-27T20:45:20.070Z,16.97
2017-08-27T20:47:48.457Z,19.27
2017-08-27T20:50:16.650Z,13.10
2017-08-27T20:52:44.905Z,14.40
2017-08-27T20:55:13.086Z,14.17
2017-08-27T20:57:41.349Z,16.80
2017-08-27T21:00:09.525Z,10.53
2017-08-27T21:02:37.701Z,10.13
2017-08-27T21:05:05.889Z,19.17
2017-08-27T21:07:34.061Z,17.00
2017-08-27T21:10:02.330Z,11.60
2017-08-27T21:12:30.579Z,9.50
2017-08-27T21:14:59.094Z,9.90
2017-08-27T21:17:27.086Z,11.03
2017-08-27T21:19:55.268Z,11.77
2017-08-27T21:22:23.711Z,16.47
2017-08-27T21:24:52.196Z,11.67
2017-08-27T21:27:20.389Z,16.03
2017-08-27T21:29:48.651Z,10.40
2017-08-27T21:32:16.832Z,16.37
2017-08-27T21:34:45.016Z,8.43
2017-08-27T21:37:13.181Z,11.53
2017-08-27T21:39:41.361Z,12.23
2017-08-27T21:42:09.721Z,7.33
2017-08-27T21:44:37.901Z,11.10
2017-08-27T21:47:05.899Z,13.87
2017-08-27T21:49:34.157Z,12.30
2017-08-27T21:52:02.326Z,9.27
2017-08-27T21:54:30.502Z,9.63
2017-08-27T21:56:58.778Z,9.00
2017-08-27T21:59:27.054Z,5.80
2017-08-27T22:01:55.237Z,7.43
2017-08-27T22:04:23.698Z,11.70
2017-08-27T22:06:51.870Z,11.60
2017-08-27T22:09:20.069Z,7.50
2017-08-27T22:11:48.349Z,7.27
2017-08-27T22:14:16.521Z,12.47
2017-08-27T22:16:44.691Z,7.90
2017-08-27T22:19:12.889Z,9.03
2017-08-27T22:21:41.151Z,10.93
2017-08-27T22:24:09.323Z,7.40
2017-08-27T22:26:37.597Z,7.13
2017-08-27T22:29:05.871Z,5.80
2017-08-27T22:31:34.044Z,9.70
2017-08-27T22:34:02.252Z,7.47
2017-08-27T22:36:30.416Z,7.10
2017-08-27T22:38:58.594Z,8.97
2017-08-27T22:41:26.845Z,7.77
2017-08-27T22:43:55.008Z,6.80
2017-08-27T22:46:23.180Z,9.13
2017-08-27T22:48:51.378Z,5.53
2017-08-27T22:51:19.559Z,7.40
2017-08-27T22:53:47.993Z,7.47
2017-08-27T22:56:15.996Z,6.10
2017-08-27T22:58:43.989Z,5.73
2017-08-27T23:01:11.973Z,8.57
2017-08-27T23:03:41.041Z,9.30
2017-08-27T23:06:09.217Z,7.83
2017-08-27T23:08:37.385Z,7.00
2017-08-27T23:11:05.593Z,6.40
2017-08-27T23:13:33.836Z,8.80
2017-08-27T23:16:02.001Z,5.80
2017-08-27T23:18:30.189Z,7.27
2017-08-27T23:20:58.357Z,5.87
2017-08-27T23:23:26.532Z,10.87
2017-08-27T23:25:54.799Z,7.03
2017-08-27T23:28:22.782Z,5.73
2017-08-27T23:30:50.952Z,9.87
2017-08-27T23:33:18.956Z,5.57
2017-08-27T23:35:47.127Z,5.87
2017-08-27T23:38:15.294Z,8.07
2017-08-27T23:40:43.477Z,6.40
2017-08-27T23:43:11.733Z,5.63
2017-08-27T23:45:39.901Z,6.53
2017-08-27T23:48:08.085Z,7.80
2017-08-27T23:50:36.253Z,7.20
2017-08-27T23:53:04.417Z,5.67
2017-08-27T23:55:32.630Z,5.10
2017-08-27T23:58:00.876Z,4.93
